Mohawk — WDF5879 — position and weather

sailwx.info

Track history (hours):
 
Tides and Currents Weather Stations Pressure Air Temp Water Temp Dewpoint Dewpoint Depression Visibility Wind Speed Wind Dir Waves Ship Positions

Mohawk

Owner: Heinke, Michael T, Groton, CT. More information available from US FCC via Universal Licensing System and Coast Guard Vessel Documentation Center.

Last reported at 2016-Dec-04 19:31 UTC. Time now 2016-Dec-08 06:03 UTC.
Position N 27°01' W 079°59'.

Length 19 m.

Type: Pleasure craft. MMSI: 367468230.

Date/timePositionNaut miles runAvg speedWind from/ knotsBaromVisibWave heightAir tempDewpointWater temp
2016-Dec-04 19:31N 27°01' W 079°59'1 0.7
2016-Dec-04 18:33N 27°01' W 079°60'1 0.8
2016-Dec-04 17:33N 27°00' W 079°59'2 1.5
2016-Dec-04 16:33N 26°59' W 079°60'1 1.3
2016-Dec-04 15:33N 26°59' W 079°58'2 2.0
2016-Dec-04 14:33N 26°59' W 080°01'1 0.8
2016-Dec-04 13:33N 26°59' W 079°60'0 0.0
2016-Dec-03 20:33N 26°59' W 080°00'1 0.5
2016-Dec-03 19:33N 26°59' W 080°01'1 0.7
2016-Dec-03 18:33N 26°59' W 080°00'1 0.7
2016-Dec-03 17:33N 26°59' W 080°00'0 0.3
2016-Dec-03 16:33N 26°58' W 080°00'2 1.5
2016-Dec-03 15:32N 26°58' W 079°59'2 1.8
2016-Dec-03 14:33N 26°59' W 079°60'0 0.4
2016-Dec-03 13:33N 26°59' W 080°00'1 0.1
2016-Dec-02 20:33N 26°58' W 080°00'0 0.5
2016-Dec-02 19:33N 26°58' W 079°60'1 0.9
2016-Dec-02 18:33N 26°57' W 079°59'1 1.5
2016-Dec-02 17:33N 26°59' W 079°60'1 1.3
2016-Dec-02 16:33N 26°57' W 079°59'0 0.4
2016-Dec-02 15:33N 26°58' W 079°59'0 0.3
2016-Dec-02 14:33N 26°58' W 079°59'2 1.8
2016-Dec-02 13:33N 26°60' W 080°00'  
2016-Nov-26 19:16N 27°01' W 079°60'3 4.5
2016-Nov-26 18:33N 26°58' W 079°60'5 4.8
2016-Nov-26 17:33N 26°53' W 079°59'37 9.2
2016-Nov-26 13:29N 26°16' W 080°05'0 0.0
2016-Nov-26 12:17N 26°16' W 080°05'0 0.0
2016-Nov-26 00:11N 26°16' W 080°05'0 0.0
2016-Nov-25 21:17N 26°16' W 080°05'0 0.0
2016-Nov-25 04:05N 26°16' W 080°05'0 0.0
2016-Nov-25 01:23N 26°16' W 080°05'0 0.0
2016-Nov-25 00:11N 26°16' W 080°05'0 0.0
2016-Nov-24 22:11N 26°16' W 080°05'0 0.0
2016-Nov-24 21:14N 26°16' W 080°05'0 0.0
2016-Nov-24 20:29N 26°16' W 080°05'  
Track history (hours):
 
Tides and Currents Weather Stations Pressure Air Temp Water Temp Dewpoint Dewpoint Depression Visibility Wind Speed Wind Dir Waves Ship Positions

Mohawk

Owner: Heinke, Michael T, Groton, CT. More information available from US FCC via Universal Licensing System and Coast Guard Vessel Documentation Center.

Last reported at 2016-Dec-04 19:31 UTC. Time now 2016-Dec-08 06:03 UTC.
Position N 27°01' W 079°59'.

Length 19 m.

Type: Pleasure craft. MMSI: 367468230.

Date/timePositionNaut miles runAvg speedWind from/ knotsBaromVisibWave heightAir tempDewpointWater temp
2016-Dec-04 19:31N 27°01' W 079°59'1 0.7
2016-Dec-04 18:33N 27°01' W 079°60'1 0.8
2016-Dec-04 17:33N 27°00' W 079°59'2 1.5
2016-Dec-04 16:33N 26°59' W 079°60'1 1.3
2016-Dec-04 15:33N 26°59' W 079°58'2 2.0
2016-Dec-04 14:33N 26°59' W 080°01'1 0.8
2016-Dec-04 13:33N 26°59' W 079°60'0 0.0
2016-Dec-03 20:33N 26°59' W 080°00'1 0.5
2016-Dec-03 19:33N 26°59' W 080°01'1 0.7
2016-Dec-03 18:33N 26°59' W 080°00'1 0.7
2016-Dec-03 17:33N 26°59' W 080°00'0 0.3
2016-Dec-03 16:33N 26°58' W 080°00'2 1.5
2016-Dec-03 15:32N 26°58' W 079°59'2 1.8
2016-Dec-03 14:33N 26°59' W 079°60'0 0.4
2016-Dec-03 13:33N 26°59' W 080°00'1 0.1
2016-Dec-02 20:33N 26°58' W 080°00'0 0.5
2016-Dec-02 19:33N 26°58' W 079°60'1 0.9
2016-Dec-02 18:33N 26°57' W 079°59'1 1.5
2016-Dec-02 17:33N 26°59' W 079°60'1 1.3
2016-Dec-02 16:33N 26°57' W 079°59'0 0.4
2016-Dec-02 15:33N 26°58' W 079°59'0 0.3
2016-Dec-02 14:33N 26°58' W 079°59'2 1.8
2016-Dec-02 13:33N 26°60' W 080°00'  
2016-Nov-26 19:16N 27°01' W 079°60'3 4.5
2016-Nov-26 18:33N 26°58' W 079°60'5 4.8
2016-Nov-26 17:33N 26°53' W 079°59'37 9.2
2016-Nov-26 13:29N 26°16' W 080°05'0 0.0
2016-Nov-26 12:17N 26°16' W 080°05'0 0.0
2016-Nov-26 00:11N 26°16' W 080°05'0 0.0
2016-Nov-25 21:17N 26°16' W 080°05'0 0.0
2016-Nov-25 04:05N 26°16' W 080°05'0 0.0
2016-Nov-25 01:23N 26°16' W 080°05'0 0.0
2016-Nov-25 00:11N 26°16' W 080°05'0 0.0
2016-Nov-24 22:11N 26°16' W 080°05'0 0.0
2016-Nov-24 21:14N 26°16' W 080°05'0 0.0
2016-Nov-24 20:29N 26°16' W 080°05'  

Dump ship's entire track history